Time;durP1;ratioP1;P1;durP2;ratioP2;P2;SDS_P1;SDS_P2;PMS_P1;PMS_P2;Temp;Humidity;BMP_temperature;BMP_pressure;BME280_temperature;BME280_humidity;BME280_pressure;Samples;Min_cycle;Max_cycle;Signal;HPM_P1;HPM_P2
2021/04/11 00:01:13;;;;;;;1.08;0.22;;;13.50;54.80;;;;;;5077441;28;20439;-73
2021/04/11 00:03:42;;;;;;;3.15;0.50;;;13.50;54.70;;;;;;5094632;28;20064;-74
2021/04/11 00:06:10;;;;;;;1.38;0.30;;;13.50;54.80;;;;;;5094409;28;20071;-74
2021/04/11 00:08:36;;;;;;;1.15;0.30;;;13.50;54.80;;;;;;5095142;28;20040;-72
2021/04/11 00:11:03;;;;;;;2.60;0.40;;;13.50;54.80;;;;;;5095200;28;20051;-74
2021/04/11 00:13:39;;;;;;;2.35;0.30;;;13.50;54.80;;;;;;5095216;28;20047;-73
2021/04/11 00:16:05;;;;;;;1.75;0.55;;;13.50;54.80;;;;;;5076873;28;20374;-72
2021/04/11 00:18:32;;;;;;;0.70;0.30;;;13.50;54.80;;;;;;5095194;28;20128;-72
2021/04/11 00:20:58;;;;;;;2.70;0.40;;;13.40;54.80;;;;;;5095124;28;20442;-73
2021/04/11 00:23:26;;;;;;;1.20;0.40;;;13.40;54.80;;;;;;5095119;28;20118;-72
2021/04/11 00:25:53;;;;;;;1.15;0.25;;;13.40;54.80;;;;;;5076496;28;20340;-73
2021/04/11 00:28:19;;;;;;;1.95;0.40;;;13.40;54.70;;;;;;5095134;28;20159;-73
2021/04/11 00:30:46;;;;;;;2.03;0.45;;;13.40;54.80;;;;;;5095146;28;20043;-73
2021/04/11 00:33:33;;;;;;;1.30;0.30;;;13.40;54.80;;;;;;5095084;28;20036;-73
2021/04/11 00:36:03;;;;;;;1.38;0.45;;;13.40;54.70;;;;;;5076724;28;20040;-74
2021/04/11 00:38:30;;;;;;;1.88;0.20;;;13.40;54.80;;;;;;5094377;28;20037;-76
2021/04/11 00:41:01;;;;;;;0.95;0.43;;;13.40;54.80;;;;;;5094207;28;20067;-72
2021/04/11 00:43:30;;;;;;;1.05;0.30;;;13.40;54.90;;;;;;5095373;28;20449;-75
2021/04/11 00:46:17;;;;;;;1.83;0.28;;;13.40;55.00;;;;;;5095253;28;20048;-73
2021/04/11 00:48:44;;;;;;;1.65;0.40;;;13.30;54.90;;;;;;5098287;28;20040;-71
2021/04/11 00:51:14;;;;;;;1.17;0.10;;;13.40;55.00;;;;;;5098418;28;20112;-73
2021/04/11 00:53:44;;;;;;;1.42;0.22;;;13.30;54.90;;;;;;5098452;28;20451;-73
2021/04/11 00:56:12;;;;;;;1.15;0.35;;;13.30;54.90;;;;;;5098324;28;20069;-73
2021/04/11 00:58:38;;;;;;;1.48;0.38;;;13.40;55.00;;;;;;5098218;28;20079;-73
2021/04/11 01:01:06;;;;;;;2.55;0.60;;;13.40;55.00;;;;;;5098207;28;20040;-72
2021/04/11 01:03:34;;;;;;;2.80;0.50;;;13.30;55.00;;;;;;5097841;28;20040;-75
2021/04/11 01:06:03;;;;;;;1.70;0.20;;;13.30;55.00;;;;;;5098109;28;20451;-74
2021/04/11 01:08:31;;;;;;;0.77;0.28;;;13.40;55.10;;;;;;5098084;28;20054;-73
2021/04/11 01:11:10;;;;;;;3.05;0.47;;;13.40;55.10;;;;;;5098377;28;20525;-72
2021/04/11 01:13:41;;;;;;;1.08;0.47;;;13.40;55.00;;;;;;5097998;28;20108;-74
2021/04/11 01:16:09;;;;;;;1.55;0.40;;;13.30;55.00;;;;;;5097492;28;20052;-75
2021/04/11 01:18:35;;;;;;;1.77;0.52;;;13.30;55.10;;;;;;5097715;28;20069;-73
2021/04/11 01:21:24;;;;;;;0.40;0.20;;;13.30;55.10;;;;;;5098179;28;20410;-73
2021/04/11 01:24:10;;;;;;;0.98;0.20;;;13.30;55.10;;;;;;5098393;28;20044;-73
2021/04/11 01:26:37;;;;;;;1.50;0.40;;;13.30;55.10;;;;;;5097837;28;20043;-74
2021/04/11 01:29:04;;;;;;;0.45;0.22;;;13.30;55.20;;;;;;5098164;28;20032;-72
2021/04/11 01:31:32;;;;;;;1.20;0.35;;;13.30;55.20;;;;;;5097278;28;20059;-73
2021/04/11 01:33:58;;;;;;;1.05;0.25;;;13.20;55.20;;;;;;5097400;28;20435;-73
2021/04/11 01:36:27;;;;;;;2.33;0.40;;;13.30;55.30;;;;;;5097560;28;20054;-73
2021/04/11 01:38:53;;;;;;;1.98;0.30;;;13.30;55.30;;;;;;5097721;28;20127;-74
2021/04/11 01:41:36;;;;;;;1.50;0.32;;;13.20;55.20;;;;;;5097205;28;20051;-74
2021/04/11 01:44:04;;;;;;;1.98;0.30;;;13.20;55.30;;;;;;5097909;28;20036;-72
2021/04/11 01:46:30;;;;;;;2.17;0.50;;;13.20;55.30;;;;;;5097497;28;20496;-74
2021/04/11 01:48:57;;;;;;;1.98;0.20;;;13.20;55.40;;;;;;5097273;28;20039;-73
2021/04/11 01:51:36;;;;;;;2.35;0.55;;;13.20;55.40;;;;;;5097525;28;20070;-73
2021/04/11 01:54:09;;;;;;;1.08;0.30;;;13.20;55.40;;;;;;5096665;28;20038;-72
2021/04/11 01:56:38;;;;;;;1.42;0.30;;;13.30;55.40;;;;;;5096872;28;20048;-73
2021/04/11 01:59:09;;;;;;;1.30;0.40;;;13.20;55.40;;;;;;5097082;28;20078;-73
2021/04/11 02:01:35;;;;;;;2.38;0.50;;;13.20;55.40;;;;;;5096920;28;20040;-73
2021/04/11 02:04:04;;;;;;;1.42;0.30;;;13.20;55.40;;;;;;5097494;28;20043;-72
2021/04/11 02:06:33;;;;;;;1.52;0.40;;;13.20;55.30;;;;;;5096910;28;20059;-73
2021/04/11 02:09:06;;;;;;;1.30;0.35;;;13.20;55.40;;;;;;5097139;28;20140;-73
2021/04/11 02:11:33;;;;;;;1.50;0.30;;;13.20;55.40;;;;;;5097423;28;20068;-73
2021/04/11 02:13:59;;;;;;;1.70;0.40;;;13.20;55.40;;;;;;5096708;28;20450;-73
2021/04/11 02:16:28;;;;;;;1.70;0.38;;;13.20;55.40;;;;;;5096848;28;20044;-73
2021/04/11 02:19:15;;;;;;;2.63;0.43;;;13.20;55.40;;;;;;5096552;28;20064;-72
2021/04/11 02:21:43;;;;;;;1.58;0.50;;;13.20;55.40;;;;;;5096958;28;20070;-74
2021/04/11 02:24:11;;;;;;;1.02;0.30;;;13.20;55.50;;;;;;5096643;28;20124;-73
2021/04/11 02:26:38;;;;;;;1.40;0.20;;;13.20;55.50;;;;;;5097287;28;20051;-72
2021/04/11 02:29:07;;;;;;;1.02;0.30;;;13.20;55.50;;;;;;5096756;28;20071;-74
2021/04/11 02:31:33;;;;;;;1.45;0.40;;;13.20;55.50;;;;;;5096260;28;20344;-73
2021/04/11 02:34:03;;;;;;;1.33;0.30;;;13.20;55.50;;;;;;5096072;28;20455;-73
2021/04/11 02:36:45;;;;;;;2.28;0.40;;;13.20;55.50;;;;;;5096622;28;20051;-73
2021/04/11 02:39:20;;;;;;;1.58;0.60;;;13.20;55.40;;;;;;5096586;28;20039;-72
2021/04/11 02:41:47;;;;;;;2.25;0.40;;;13.20;55.40;;;;;;5096396;28;20040;-73
2021/04/11 02:44:13;;;;;;;1.70;0.52;;;13.10;55.40;;;;;;5095430;28;20044;-73
2021/04/11 02:46:41;;;;;;;1.85;0.30;;;13.10;55.40;;;;;;5096182;28;20114;-73
2021/04/11 02:49:11;;;;;;;2.50;0.45;;;13.10;55.40;;;;;;5096170;28;20058;-73
2021/04/11 02:51:38;;;;;;;1.58;0.50;;;13.20;55.50;;;;;;5096100;28;20077;-73
2021/04/11 02:54:07;;;;;;;1.45;0.55;;;13.20;55.40;;;;;;5096548;28;20044;-74
2021/04/11 02:56:36;;;;;;;1.20;0.47;;;13.10;55.40;;;;;;5096113;28;20060;-72
2021/04/11 02:59:03;;;;;;;2.42;0.50;;;13.10;55.50;;;;;;5096239;28;20052;-73
2021/04/11 03:01:42;;;;;;;1.70;0.47;;;13.10;55.50;;;;;;5096305;28;20425;-73
2021/04/11 03:04:12;;;;;;;2.42;0.40;;;13.10;55.50;;;;;;5096070;28;20044;-73
2021/04/11 03:06:42;;;;;;;1.77;0.68;;;13.10;55.50;;;;;;5095586;28;20123;-74
2021/04/11 03:09:12;;;;;;;1.23;0.40;;;13.10;55.60;;;;;;5095053;28;20040;-74
2021/04/11 03:11:54;;;;;;;1.75;0.40;;;13.10;55.50;;;;;;5096272;28;20163;-73
2021/04/11 03:14:25;;;;;;;2.08;0.50;;;13.10;55.60;;;;;;5095311;28;20044;-73
2021/04/11 03:16:51;;;;;;;1.00;0.22;;;13.00;55.60;;;;;;5095951;28;20442;-73
2021/04/11 03:19:29;;;;;;;1.92;0.60;;;13.10;55.70;;;;;;5095415;28;20051;-73
2021/04/11 03:21:55;;;;;;;1.25;0.30;;;13.10;55.70;;;;;;5095495;28;20044;-72
2021/04/11 03:24:21;;;;;;;2.47;0.65;;;13.10;55.70;;;;;;5095473;28;20040;-73
2021/04/11 03:26:53;;;;;;;1.00;0.30;;;13.00;55.70;;;;;;5095502;28;20055;-72
2021/04/11 03:29:29;;;;;;;1.30;0.30;;;13.10;55.80;;;;;;5095464;28;20078;-72
2021/04/11 03:32:11;;;;;;;1.73;0.30;;;13.00;55.70;;;;;;5095161;28;20361;-74
2021/04/11 03:34:39;;;;;;;1.73;0.55;;;13.00;55.70;;;;;;5095035;28;20119;-74
2021/04/11 03:37:08;;;;;;;0.88;0.40;;;13.00;55.80;;;;;;5095654;28;20077;-73
2021/04/11 03:39:35;;;;;;;1.23;0.38;;;13.00;55.70;;;;;;5095285;28;20051;-74
2021/04/11 03:42:12;;;;;;;2.90;0.80;;;13.00;55.70;;;;;;5095317;28;20066;-73
2021/04/11 03:44:37;;;;;;;1.83;0.47;;;13.00;55.70;;;;;;5077508;28;20433;-74
2021/04/11 03:47:27;;;;;;;1.70;0.32;;;13.00;55.70;;;;;;5095366;28;20032;-73
2021/04/11 03:50:18;;;;;;;0.73;0.20;;;13.00;55.70;;;;;;5095191;28;20042;-74
2021/04/11 03:53:12;;;;;;;1.33;0.28;;;13.00;55.70;;;;;;5095329;28;20064;-75
2021/04/11 03:55:41;;;;;;;0.52;0.20;;;13.00;55.70;;;;;;5095012;28;20032;-73
2021/04/11 03:58:31;;;;;;;1.67;0.40;;;13.00;55.70;;;;;;5094605;28;20052;-74
2021/04/11 04:01:07;;;;;;;0.85;0.30;;;13.00;55.80;;;;;;5095706;28;20407;-73
2021/04/11 04:03:35;;;;;;;1.40;0.38;;;13.00;55.80;;;;;;5095025;28;20094;-73
2021/04/11 04:06:18;;;;;;;2.22;0.45;;;13.00;55.80;;;;;;5094946;28;20044;-72
2021/04/11 04:08:44;;;;;;;1.25;0.43;;;13.00;55.80;;;;;;5095129;28;20048;-73
2021/04/11 04:11:30;;;;;;;1.33;0.22;;;13.00;55.80;;;;;;5094831;28;20051;-72
2021/04/11 04:14:35;;;;;;;4.00;0.50;;;13.00;55.80;;;;;;5095358;28;20123;-75
2021/04/11 04:17:22;;;;;;;2.33;0.30;;;13.00;55.80;;;;;;5081363;28;20048;-73
2021/04/11 04:20:12;;;;;;;1.42;0.43;;;13.00;55.80;;;;;;5094798;28;20108;-72
2021/04/11 04:22:56;;;;;;;1.60;0.30;;;13.00;55.80;;;;;;5099388;28;20435;-73
2021/04/11 04:25:41;;;;;;;0.75;0.43;;;13.00;55.80;;;;;;5099135;28;20040;-73
2021/04/11 04:28:31;;;;;;;1.60;0.38;;;13.00;55.70;;;;;;5098854;28;20040;-73
2021/04/11 04:31:02;;;;;;;1.13;0.30;;;13.00;55.70;;;;;;5099040;28;20341;-73
2021/04/11 04:33:31;;;;;;;1.15;0.40;;;13.00;55.80;;;;;;5081696;28;20102;-73
2021/04/11 04:36:32;;;;;;;1.33;0.30;;;13.00;55.70;;;;;;5098729;28;20431;-72
2021/04/11 04:39:17;;;;;;;1.77;0.30;;;13.00;55.70;;;;;;5099073;28;20115;-72
2021/04/11 04:41:45;;;;;;;1.05;0.30;;;13.00;55.80;;;;;;5098980;28;20346;-73
2021/04/11 04:44:38;;;;;;;0.75;0.30;;;12.90;55.70;;;;;;5098383;28;20035;-75
2021/04/11 04:47:20;;;;;;;1.20;0.25;;;12.90;55.70;;;;;;5098599;28;20047;-73
2021/04/11 04:49:58;;;;;;;1.73;0.30;;;12.90;55.60;;;;;;5098219;28;20089;-72
2021/04/11 04:52:27;;;;;;;1.00;0.30;;;12.90;55.60;;;;;;5098270;28;20051;-72
2021/04/11 04:55:10;;;;;;;3.50;0.60;;;12.90;55.70;;;;;;5098300;28;20085;-74
2021/04/11 04:57:42;;;;;;;1.52;0.50;;;12.90;55.70;;;;;;5097903;28;20081;-73
2021/04/11 05:00:21;;;;;;;1.52;0.50;;;12.90;55.70;;;;;;5098124;28;20448;-74
2021/04/11 05:02:59;;;;;;;1.13;0.20;;;12.90;55.70;;;;;;5098596;28;20050;-74
2021/04/11 05:05:26;;;;;;;2.15;0.20;;;12.90;55.70;;;;;;5080426;28;20451;-72
2021/04/11 05:07:59;;;;;;;1.17;0.40;;;12.90;55.80;;;;;;5097917;28;20117;-73
2021/04/11 05:10:37;;;;;;;1.17;0.27;;;12.90;55.70;;;;;;5097644;28;20051;-74
2021/04/11 05:13:22;;;;;;;1.60;0.40;;;12.90;55.70;;;;;;5098488;28;20122;-73
2021/04/11 05:16:03;;;;;;;1.15;0.20;;;12.90;55.70;;;;;;5098470;28;20442;-73
2021/04/11 05:18:39;;;;;;;2.15;0.50;;;12.90;55.60;;;;;;5097504;28;20074;-72
2021/04/11 05:21:17;;;;;;;0.93;0.40;;;12.90;55.70;;;;;;5098206;28;20472;-71
2021/04/11 05:24:02;;;;;;;2.22;0.35;;;12.90;55.60;;;;;;5098503;28;20039;-75
2021/04/11 05:26:46;;;;;;;1.85;0.75;;;12.90;55.60;;;;;;5097847;28;20125;-74
2021/04/11 05:29:26;;;;;;;0.93;0.40;;;12.90;55.60;;;;;;5080393;28;20094;-73
2021/04/11 05:31:55;;;;;;;3.20;0.52;;;12.90;55.60;;;;;;5097143;28;20046;-72
2021/04/11 05:34:24;;;;;;;1.90;0.35;;;12.90;55.60;;;;;;5097794;28;20074;-71
2021/04/11 05:37:18;;;;;;;1.67;0.45;;;12.90;55.60;;;;;;5097579;28;20044;-72
2021/04/11 05:40:17;;;;;;;2.58;0.30;;;12.90;55.60;;;;;;5008148;28;20129;-73
2021/04/11 05:43:00;;;;;;;1.58;0.30;;;12.90;55.70;;;;;;5063311;28;20055;-72
2021/04/11 05:45:37;;;;;;;1.42;0.28;;;12.80;55.70;;;;;;5097414;28;20040;-73
2021/04/11 05:48:28;;;;;;;0.68;0.28;;;12.80;55.70;;;;;;5097766;28;20479;-72
2021/04/11 05:51:02;;;;;;;2.03;0.30;;;12.80;56.30;;;;;;5096938;28;20408;-73
2021/04/11 05:53:34;;;;;;;;;;;12.80;55.70;;;;;;5097823;28;20043;-73
2021/04/11 05:56:11;;;;;;;1.10;0.38;;;12.80;55.60;;;;;;5097203;28;19981;-73
2021/04/11 05:58:46;;;;;;;0.73;0.20;;;12.80;55.80;;;;;;5096651;28;20435;-72
2021/04/11 06:01:16;;;;;;;1.10;0.20;;;12.80;55.90;;;;;;5097712;28;20051;-72
2021/04/11 06:03:49;;;;;;;1.42;0.30;;;12.80;55.90;;;;;;5097440;28;20039;-71
2021/04/11 06:06:27;;;;;;;2.30;0.40;;;12.80;56.00;;;;;;5097118;28;20134;-73
2021/04/11 06:09:15;;;;;;;2.00;0.20;;;12.80;55.90;;;;;;5096401;28;20331;-72
2021/04/11 06:12:05;;;;;;;1.00;0.30;;;12.80;56.60;;;;;;5096807;28;20040;-73
2021/04/11 06:14:51;;;;;;;1.30;0.30;;;12.80;55.90;;;;;;5097413;28;20431;-73
2021/04/11 06:17:17;;;;;;;1.17;0.45;;;12.80;55.90;;;;;;5096547;28;20094;-75
2021/04/11 06:19:47;;;;;;;1.40;0.22;;;12.80;55.90;;;;;;5079537;28;20443;-73
2021/04/11 06:22:27;;;;;;;1.48;0.22;;;12.80;55.90;;;;;;5097174;28;20051;-73
2021/04/11 06:24:59;;;;;;;0.22;0.10;;;12.80;55.90;;;;;;5096661;28;20141;-73
2021/04/11 06:27:31;;;;;;;1.25;0.10;;;12.80;55.90;;;;;;5097042;28;20078;-72
2021/04/11 06:30:06;;;;;;;0.65;0.30;;;12.80;55.80;;;;;;5096724;28;20040;-74
2021/04/11 06:32:56;;;;;;;0.82;0.20;;;12.80;55.80;;;;;;5078954;28;20036;-73
2021/04/11 06:35:34;;;;;;;1.00;0.30;;;12.80;55.80;;;;;;5096423;28;20040;-74
2021/04/11 06:38:01;;;;;;;2.03;0.50;;;12.80;55.80;;;;;;5096604;28;20044;-73
2021/04/11 06:40:42;;;;;;;0.88;0.30;;;12.80;55.80;;;;;;5096379;28;20039;-74
2021/04/11 06:43:17;;;;;;;1.00;0.35;;;12.80;55.80;;;;;;5096134;28;20159;-73
2021/04/11 06:45:59;;;;;;;0.77;0.30;;;12.80;55.70;;;;;;5096653;28;20036;-74
2021/04/11 06:48:36;;;;;;;0.52;0.20;;;12.80;55.80;;;;;;5096291;28;20036;-73
2021/04/11 06:51:28;;;;;;;1.27;0.20;;;12.80;55.80;;;;;;5095723;28;20364;-73
2021/04/11 06:54:06;;;;;;;1.02;0.20;;;12.80;55.70;;;;;;5096554;28;20446;-72
2021/04/11 06:56:44;;;;;;;0.30;0.10;;;12.80;55.80;;;;;;5096051;28;20066;-72
2021/04/11 06:59:33;;;;;;;1.05;0.25;;;12.80;55.80;;;;;;5095769;28;20515;-72
2021/04/11 07:02:13;;;;;;;0.80;0.20;;;12.80;55.80;;;;;;5095972;28;20039;-74
2021/04/11 07:05:16;;;;;;;0.60;0.20;;;12.80;55.90;;;;;;5096559;28;20335;-73
2021/04/11 07:08:16;;;;;;;2.13;0.40;;;12.80;55.80;;;;;;5096254;28;20047;-73
2021/04/11 07:11:13;;;;;;;1.58;0.22;;;12.80;55.90;;;;;;5095498;28;20380;-73
2021/04/11 07:14:18;;;;;;;0.95;0.20;;;12.70;55.90;;;;;;5096034;28;20111;-72
2021/04/11 07:17:05;;;;;;;1.30;0.25;;;12.70;55.90;;;;;;5044768;28;20504;-71
2021/04/11 07:19:52;;;;;;;1.75;0.20;;;12.70;55.90;;;;;;5095735;28;20043;-73
2021/04/11 07:22:33;;;;;;;1.88;0.28;;;12.70;55.90;;;;;;5095567;28;20105;-74
2021/04/11 07:25:21;;;;;;;1.02;0.20;;;12.70;55.90;;;;;;5095446;28;20039;-72
2021/04/11 07:27:56;;;;;;;1.40;0.30;;;12.70;55.90;;;;;;5077847;28;20040;-73
2021/04/11 07:30:43;;;;;;;3.47;0.52;;;12.70;55.90;;;;;;5077903;28;20036;-72
2021/04/11 07:33:09;;;;;;;1.25;0.20;;;12.70;55.90;;;;;;5095480;28;20105;-72
2021/04/11 07:36:05;;;;;;;0.85;0.10;;;12.70;55.90;;;;;;5095260;28;20044;-73
2021/04/11 07:39:02;;;;;;;1.08;0.30;;;12.70;55.90;;;;;;5095525;28;20036;-74
2021/04/11 07:42:04;;;;;;;1.63;0.40;;;12.70;55.90;;;;;;5095684;28;20097;-73
2021/04/11 07:44:53;;;;;;;1.92;0.28;;;12.70;55.90;;;;;;5095360;28;20047;-73
2021/04/11 07:47:44;;;;;;;1.40;0.52;;;12.70;55.90;;;;;;5094935;28;20126;-73
2021/04/11 07:50:36;;;;;;;1.92;0.30;;;12.70;55.90;;;;;;5095472;28;20093;-73
2021/04/11 07:53:31;;;;;;;1.70;0.30;;;12.70;55.90;;;;;;5095246;28;20036;-75
2021/04/11 07:56:20;;;;;;;1.65;0.22;;;12.70;56.00;;;;;;5094635;28;20061;-75
2021/04/11 07:59:13;;;;;;;1.20;0.30;;;12.70;56.00;;;;;;5094608;28;20096;-73
2021/04/11 08:02:16;;;;;;;1.17;0.20;;;12.70;56.70;;;;;;5048133;28;20063;-73
2021/04/11 08:05:06;;;;;;;0.88;0.20;;;12.70;56.00;;;;;;5094910;28;20461;-74
2021/04/11 08:08:29;;;;;;;1.67;0.20;;;12.70;56.10;;;;;;5094603;28;20119;-74
2021/04/11 08:11:21;;;;;;;1.02;0.20;;;12.70;56.00;;;;;;4993839;28;20069;-74
2021/04/11 08:13:52;;;;;;;1.13;0.20;;;12.70;56.10;;;;;;4992853;28;20154;-74
2021/04/11 08:16:43;;;;;;;1.45;0.30;;;12.70;56.10;;;;;;5075733;28;20051;-73
2021/04/11 08:19:37;;;;;;;1.60;0.30;;;12.70;56.10;;;;;;5095105;28;20036;-73
2021/04/11 08:22:30;;;;;;;1.60;0.40;;;12.70;56.10;;;;;;5094459;28;20043;-74
2021/04/11 08:25:26;;;;;;;0.77;0.20;;;12.60;56.10;;;;;;5095192;28;20050;-73
2021/04/11 08:28:23;;;;;;;2.72;0.40;;;12.70;56.10;;;;;;5095335;28;20439;-74
2021/04/11 08:30:49;;;;;;;1.60;0.30;;;12.70;56.10;;;;;;5094784;28;20074;-72
2021/04/11 08:33:56;;;;;;;0.80;0.20;;;12.70;56.10;;;;;;5094692;28;20032;-73
2021/04/11 08:36:59;;;;;;;1.70;0.30;;;12.70;56.10;;;;;;5081458;28;20052;-73
2021/04/11 08:39:43;;;;;;;1.38;0.30;;;12.60;56.10;;;;;;5076987;28;20485;-74
2021/04/11 08:42:18;;;;;;;;;;;12.60;56.10;;;;;;5095028;28;20036;-73
2021/04/11 08:44:56;;;;;;;;;;;12.60;56.10;;;;;;5095637;28;19927;-73
2021/04/11 08:48:16;;;;;;;0.70;0.25;;;12.70;56.30;;;;;;5094546;28;19920;-73
2021/04/11 08:50:52;;;;;;;1.10;0.20;;;12.60;56.20;;;;;;4993667;28;20042;-74
2021/04/11 08:54:05;;;;;;;0.75;0.30;;;12.60;56.20;;;;;;5080501;28;20400;-73
2021/04/11 08:56:39;;;;;;;0.68;0.20;;;12.60;56.20;;;;;;4993513;28;20185;-73
2021/04/11 08:59:32;;;;;;;1.75;0.10;;;12.60;56.20;;;;;;4993009;28;20074;-74
2021/04/11 09:02:22;;;;;;;1.73;0.25;;;12.60;56.20;;;;;;5070683;28;20072;-74
2021/04/11 09:05:26;;;;;;;2.42;0.45;;;12.60;56.20;;;;;;5094471;28;20434;-74
2021/04/11 09:08:12;;;;;;;0.75;0.20;;;12.60;56.20;;;;;;5095948;28;20446;-74
2021/04/11 09:11:16;;;;;;;1.20;0.35;;;12.70;56.30;;;;;;5098098;28;20036;-73
2021/04/11 09:14:09;;;;;;;1.23;0.40;;;12.60;56.20;;;;;;5008807;28;20046;-75
2021/04/11 09:16:59;;;;;;;1.65;0.40;;;12.70;56.30;;;;;;5098025;28;20110;-74
2021/04/11 09:19:32;;;;;;;1.65;0.38;;;12.60;56.30;;;;;;5098172;28;20051;-73
2021/04/11 09:22:07;;;;;;;1.17;0.30;;;12.70;56.30;;;;;;5097449;28;20524;-73
2021/04/11 09:24:48;;;;;;;0.55;0.20;;;12.60;56.30;;;;;;5097556;28;20040;-72
2021/04/11 09:27:47;;;;;;;1.55;0.30;;;12.60;56.30;;;;;;5097794;28;20356;-72
2021/04/11 09:30:34;;;;;;;0.93;0.28;;;12.70;56.40;;;;;;5097943;28;20040;-72
2021/04/11 09:33:30;;;;;;;1.58;0.50;;;12.70;57.10;;;;;;5097382;28;20135;-73
2021/04/11 09:36:30;;;;;;;0.73;0.20;;;12.70;56.60;;;;;;5097902;28;20044;-74
2021/04/11 09:39:12;;;;;;;1.27;0.20;;;12.70;56.60;;;;;;5097757;28;20043;-74
2021/04/11 09:41:56;;;;;;;0.90;0.28;;;12.60;56.50;;;;;;5097290;28;20067;-73
2021/04/11 09:44:57;;;;;;;0.90;0.40;;;12.70;56.70;;;;;;5097304;28;20047;-74
2021/04/11 09:47:39;;;;;;;1.95;0.38;;;12.70;56.70;;;;;;5097998;28;20044;-73
2021/04/11 09:50:27;;;;;;;2.42;0.30;;;12.70;56.80;;;;;;5097233;28;20040;-72
2021/04/11 09:53:32;;;;;;;1.42;0.20;;;12.60;56.80;;;;;;5097229;28;20058;-74
2021/04/11 09:56:12;;;;;;;1.13;0.30;;;12.60;56.80;;;;;;4979748;28;20053;-73
2021/04/11 09:58:46;;;;;;;1.90;0.40;;;12.60;56.90;;;;;;5085908;28;20374;-74
2021/04/11 10:01:20;;;;;;;1.25;0.50;;;12.60;56.90;;;;;;5097432;28;20372;-73
2021/04/11 10:04:01;;;;;;;1.15;0.20;;;12.70;57.10;;;;;;5096931;28;20028;-72
2021/04/11 10:07:04;;;;;;;0.98;0.47;;;12.60;57.10;;;;;;5096946;28;20123;-74
2021/04/11 10:09:47;;;;;;;1.23;0.25;;;12.60;57.10;;;;;;5096846;28;20359;-73
2021/04/11 10:12:47;;;;;;;1.67;0.30;;;12.60;57.10;;;;;;5078858;28;20046;-72
2021/04/11 10:15:42;;;;;;;1.42;0.30;;;12.60;57.10;;;;;;5097173;28;20047;-73
2021/04/11 10:18:32;;;;;;;2.35;0.28;;;12.60;57.10;;;;;;5096300;28;20032;-74
2021/04/11 10:21:36;;;;;;;0.82;0.10;;;12.60;57.20;;;;;;5096641;28;20192;-73
2021/04/11 10:24:38;;;;;;;0.75;0.25;;;12.70;57.30;;;;;;5096778;28;20043;-72
2021/04/11 10:27:27;;;;;;;1.80;0.40;;;12.70;57.30;;;;;;5096729;28;20052;-72
2021/04/11 10:29:54;;;;;;;1.33;0.30;;;12.60;57.30;;;;;;5097282;28;20193;-75
2021/04/11 10:32:56;;;;;;;2.13;0.35;;;12.60;57.30;;;;;;5096234;28;20071;-72
2021/04/11 10:35:41;;;;;;;1.63;0.25;;;12.60;57.30;;;;;;5096988;28;20040;-73
2021/04/11 10:38:31;;;;;;;0.98;0.30;;;12.60;57.30;;;;;;5096426;28;20070;-73
2021/04/11 10:41:25;;;;;;;1.50;0.40;;;12.60;58.10;;;;;;5096543;28;20170;-73
2021/04/11 10:44:16;;;;;;;1.60;0.38;;;12.60;57.50;;;;;;5095912;28;20160;-74
2021/04/11 10:47:19;;;;;;;1.00;0.22;;;12.70;57.70;;;;;;5096289;28;20085;-74
2021/04/11 10:50:21;;;;;;;1.17;0.40;;;12.60;57.60;;;;;;5096125;28;20040;-73
2021/04/11 10:53:24;;;;;;;1.00;0.22;;;12.60;57.60;;;;;;5095943;28;20101;-73
2021/04/11 10:56:20;;;;;;;1.48;0.30;;;12.60;57.70;;;;;;5096302;28;20061;-73
2021/04/11 10:59:18;;;;;;;0.50;0.15;;;12.60;57.90;;;;;;5096110;28;20043;-73
2021/04/11 11:02:08;;;;;;;1.50;0.40;;;12.60;57.70;;;;;;5095616;28;20416;-73
2021/04/11 11:05:01;;;;;;;1.65;0.47;;;12.60;57.60;;;;;;5082106;28;20113;-74
2021/04/11 11:07:48;;;;;;;1.13;0.35;;;12.60;57.80;;;;;;5096504;28;20073;-73
2021/04/11 11:11:01;;;;;;;1.55;0.20;;;12.60;57.70;;;;;;5096338;28;20048;-74
2021/04/11 11:13:26;;;;;;;1.27;0.22;;;12.60;57.90;;;;;;5048485;28;20055;-72
2021/04/11 11:16:27;;;;;;;1.23;0.20;;;12.60;57.70;;;;;;5095698;28;20409;-75
2021/04/11 11:19:40;;;;;;;1.50;0.40;;;12.60;57.80;;;;;;5096069;28;20039;-74
2021/04/11 11:22:33;;;;;;;0.80;0.30;;;12.70;57.80;;;;;;4994334;28;20369;-75
2021/04/11 11:25:13;;;;;;;1.13;0.20;;;12.60;57.70;;;;;;4994186;28;20048;-73
2021/04/11 11:28:26;;;;;;;1.50;0.32;;;12.70;57.80;;;;;;5076403;28;20118;-73
2021/04/11 11:31:09;;;;;;;1.67;0.35;;;12.70;57.70;;;;;;5072896;28;20063;-73
2021/04/11 11:34:01;;;;;;;0.85;0.30;;;12.70;57.80;;;;;;5095405;28;20040;-74
2021/04/11 11:36:39;;;;;;;1.02;0.40;;;12.70;57.90;;;;;;5096209;28;20054;-72
2021/04/11 11:39:13;;;;;;;2.70;0.43;;;12.70;57.80;;;;;;5095427;28;20051;-72
2021/04/11 11:41:54;;;;;;;1.42;0.40;;;12.70;57.80;;;;;;5095636;28;20114;-73
2021/04/11 11:44:57;;;;;;;2.10;0.22;;;12.70;57.80;;;;;;5095207;28;20052;-75
2021/04/11 11:47:29;;;;;;;1.98;0.20;;;12.70;57.90;;;;;;5095840;28;20040;-73
2021/04/11 11:50:10;;;;;;;0.93;0.20;;;12.70;57.80;;;;;;5095403;28;20350;-74
2021/04/11 11:52:49;;;;;;;0.88;0.22;;;12.70;57.80;;;;;;5095028;28;20040;-73
2021/04/11 11:55:29;;;;;;;1.27;0.40;;;12.70;57.90;;;;;;5078033;28;20044;-73
2021/04/11 11:58:12;;;;;;;2.05;0.15;;;12.70;57.80;;;;;;5095035;28;20043;-73
2021/04/11 12:00:44;;;;;;;1.23;0.30;;;12.70;57.80;;;;;;5095003;28;20050;-75
2021/04/11 12:03:23;;;;;;;1.10;0.22;;;12.70;57.80;;;;;;5094714;28;20063;-73
2021/04/11 12:06:16;;;;;;;2.17;0.30;;;12.70;57.80;;;;;;5095495;28;20051;-74
2021/04/11 12:09:01;;;;;;;0.50;0.13;;;12.70;57.80;;;;;;5095069;28;20040;-73
2021/04/11 12:11:58;;;;;;;0.65;0.30;;;12.70;57.80;;;;;;5094832;28;20044;-74
2021/04/11 12:14:45;;;;;;;1.45;0.25;;;12.70;57.90;;;;;;5077419;28;20066;-74
2021/04/11 12:17:48;;;;;;;1.45;0.22;;;12.70;58.50;;;;;;5094925;28;20036;-73
2021/04/11 12:20:34;;;;;;;0.85;0.25;;;12.60;58.00;;;;;;5095348;28;20136;-73
2021/04/11 12:23:16;;;;;;;1.38;0.30;;;12.70;57.90;;;;;;5094780;28;20060;-73
2021/04/11 12:25:43;;;;;;;1.20;0.10;;;12.70;58.00;;;;;;5094830;28;20123;-74
2021/04/11 12:28:18;;;;;;;1.02;0.30;;;12.70;57.80;;;;;;5094817;28;20119;-73
2021/04/11 12:30:44;;;;;;;1.08;0.40;;;12.70;57.90;;;;;;5095293;28;20044;-74
2021/04/11 12:33:28;;;;;;;1.65;0.38;;;12.70;57.80;;;;;;5094861;28;20055;-73
2021/04/11 12:35:54;;;;;;;2.03;0.68;;;12.70;57.90;;;;;;5095372;28;20051;-73
2021/04/11 12:38:32;;;;;;;1.63;0.30;;;12.70;57.80;;;;;;5095076;28;20032;-74
2021/04/11 12:41:08;;;;;;;1.17;0.20;;;12.70;57.90;;;;;;5095029;28;20044;-73
2021/04/11 12:43:56;;;;;;;1.77;0.20;;;12.70;57.80;;;;;;5098673;28;20036;-72
2021/04/11 12:46:33;;;;;;;1.17;0.30;;;12.70;57.90;;;;;;5098711;28;20144;-73
2021/04/11 12:49:27;;;;;;;1.17;0.15;;;12.70;57.90;;;;;;5098625;28;20040;-73
2021/04/11 12:52:02;;;;;;;2.65;0.30;;;12.70;57.90;;;;;;5098620;28;20039;-73
2021/04/11 12:54:36;;;;;;;2.30;0.40;;;12.70;57.80;;;;;;5098569;28;20040;-73
2021/04/11 12:57:18;;;;;;;1.95;0.17;;;12.70;57.80;;;;;;5098581;28;20044;-74
2021/04/11 13:00:07;;;;;;;1.23;0.13;;;12.70;57.90;;;;;;5080894;28;20436;-73
2021/04/11 13:03:14;;;;;;;2.78;0.30;;;12.70;57.90;;;;;;5098454;28;20044;-73
2021/04/11 13:05:46;;;;;;;1.60;0.28;;;12.70;57.90;;;;;;5017816;28;20118;-72
2021/04/11 13:08:31;;;;;;;0.70;0.20;;;12.70;57.80;;;;;;5098399;28;20044;-73
2021/04/11 13:11:06;;;;;;;0.88;0.30;;;12.70;57.80;;;;;;5098442;28;20440;-73
2021/04/11 13:14:10;;;;;;;2.75;0.45;;;12.70;57.90;;;;;;5097687;28;20439;-73
2021/04/11 13:16:56;;;;;;;1.33;0.30;;;12.70;58.10;;;;;;5097701;28;20031;-74
2021/04/11 13:19:31;;;;;;;2.22;0.47;;;12.70;58.00;;;;;;5097796;28;20036;-74
2021/04/11 13:22:12;;;;;;;1.30;0.22;;;12.70;58.00;;;;;;5098377;28;20065;-73
2021/04/11 13:25:00;;;;;;;0.98;0.30;;;12.70;57.90;;;;;;5097384;28;20050;-74
2021/04/11 13:27:36;;;;;;;1.70;0.35;;;12.70;58.00;;;;;;5097726;28;20040;-73
2021/04/11 13:30:17;;;;;;;1.52;0.22;;;12.70;57.90;;;;;;5098081;28;20060;-74
2021/04/11 13:33:05;;;;;;;0.95;0.40;;;12.70;58.00;;;;;;5097671;28;20036;-75
2021/04/11 13:35:52;;;;;;;1.10;0.30;;;12.70;58.10;;;;;;5097746;28;20043;-72
2021/04/11 13:38:31;;;;;;;1.80;0.30;;;12.70;58.00;;;;;;5097603;28;20048;-74
2021/04/11 13:41:06;;;;;;;0.90;0.30;;;12.70;58.00;;;;;;5097527;28;20055;-73
2021/04/11 13:43:50;;;;;;;1.55;0.20;;;12.70;58.00;;;;;;5097083;28;20044;-73
2021/04/11 13:46:36;;;;;;;1.75;0.35;;;12.70;57.90;;;;;;5097490;28;20059;-73
2021/04/11 13:49:31;;;;;;;1.73;0.30;;;12.70;58.00;;;;;;5097298;28;20040;-73
2021/04/11 13:52:04;;;;;;;0.75;0.30;;;12.70;58.10;;;;;;5097127;28;20051;-73
2021/04/11 13:54:53;;;;;;;1.20;0.20;;;12.70;58.00;;;;;;5096396;28;20040;-74
2021/04/11 13:57:33;;;;;;;1.10;0.30;;;12.70;58.00;;;;;;5097270;28;20047;-74
2021/04/11 14:00:29;;;;;;;1.77;0.25;;;12.70;58.10;;;;;;5096992;28;20063;-74